Terminal Aerodrome Forecast
Issued by NWS Omaha/Valley, NE

Home | Current Version | Previous Version | Text Only | Print | Product List | Glossary Off
Versions: 1 2 3 4 5 6 7 8 9 10 11 12 13 14 15 16 17 18 19 20 21 22 23 24 25 26 27 28 29 30 31 32 33 34 35 36 37 38

000
FTUS43 KOAX 280634 AAA
TAFOFK
TAF AMD
KOFK 280634Z 2807/2906 12010KT P6SM SCT015 OVC035
      TEMPO 2807/2809 BKN015
     FM280900 07009KT 4SM BR OVC015
     FM281100 04008KT 1 1/2SM BR OVC007
     FM281500 34009KT 5SM BR OVC015
     FM281800 36010KT P6SM BKN050
     FM282300 02006KT P6SM SKC=

USA.gov is the U.S. government's official web portal to all federal, state and local government web resources and services.